createdAt,value
2017-04-03T00:00:29.863Z,10.24
2017-04-03T00:01:31.199Z,10.22
2017-04-03T00:02:32.416Z,10.17
2017-04-03T00:03:33.686Z,10.19
2017-04-03T00:04:34.921Z,10.21
2017-04-03T00:05:36.162Z,10.19
2017-04-03T00:06:37.535Z,10.18
2017-04-03T00:07:38.756Z,10.17
2017-04-03T00:08:39.993Z,10.07
2017-04-03T00:09:41.269Z,10.03
2017-04-03T00:10:42.497Z,10.14
2017-04-03T00:11:43.794Z,10.1
2017-04-03T00:12:45.029Z,10.1
2017-04-03T00:13:46.310Z,10.09
2017-04-03T00:14:47.531Z,10.14
2017-04-03T00:15:48.770Z,10.06
2017-04-03T00:16:50.060Z,10.04
2017-04-03T00:17:51.332Z,10.12
2017-04-03T00:18:52.638Z,10.18
2017-04-03T00:19:53.873Z,10.19
2017-04-03T00:20:55.134Z,10.21
2017-04-03T00:21:56.561Z,10.19
2017-04-03T00:22:57.974Z,10.22
2017-04-03T00:23:59.309Z,10.22
2017-04-03T00:25:00.539Z,10.18
2017-04-03T00:26:01.850Z,10.21
2017-04-03T00:27:03.071Z,10.17
2017-04-03T00:28:04.307Z,10.17
2017-04-03T00:29:05.568Z,10.21
2017-04-03T00:30:06.811Z,10.15
2017-04-03T00:31:08.041Z,10.07
2017-04-03T00:32:09.301Z,10.12
2017-04-03T00:33:10.526Z,10.07
2017-04-03T00:34:11.801Z,10.1
2017-04-03T00:35:13.014Z,10.09
2017-04-03T00:36:14.275Z,10.01
2017-04-03T00:37:15.560Z,10.01
2017-04-03T00:38:16.802Z,10.09
2017-04-03T00:39:18.059Z,10.07
2017-04-03T00:40:19.288Z,9.94
2017-04-03T00:41:20.560Z,10.04
2017-04-03T00:42:21.789Z,9.97
2017-04-03T00:43:23.020Z,9.99
2017-04-03T00:44:24.263Z,9.99
2017-04-03T00:45:25.520Z,10.03
2017-04-03T00:46:26.747Z,10
2017-04-03T00:47:27.981Z,10.01
2017-04-03T00:48:29.224Z,9.93
2017-04-03T00:49:30.485Z,10.03
2017-04-03T00:50:31.738Z,10.07
2017-04-03T00:51:33.131Z,9.99
2017-04-03T00:52:34.259Z,10.03
2017-04-03T00:53:35.518Z,9.93
2017-04-03T00:54:36.759Z,9.86
2017-04-03T00:55:38.241Z,9.88
2017-04-03T00:56:39.518Z,9.93
2017-04-03T00:57:40.786Z,9.82
2017-04-03T00:58:42.040Z,9.81
2017-04-03T00:59:43.277Z,9.85
2017-04-03T01:00:44.521Z,9.85
2017-04-03T01:01:45.781Z,9.91
2017-04-03T01:02:47.048Z,9.85
2017-04-03T01:03:48.316Z,9.83
2017-04-03T01:04:49.778Z,9.89
2017-04-03T01:05:51.028Z,9.83
2017-04-03T01:06:52.264Z,9.91
2017-04-03T01:07:53.733Z,9.89
2017-04-03T01:08:55.000Z,9.85
2017-04-03T01:09:56.226Z,9.93
2017-04-03T01:10:57.466Z,9.83
2017-04-03T01:11:58.723Z,9.86
2017-04-03T01:12:59.970Z,9.85
2017-04-03T01:14:01.239Z,9.85
2017-04-03T01:15:02.520Z,9.86
2017-04-03T01:16:03.758Z,9.93
2017-04-03T01:17:05.005Z,9.88
2017-04-03T01:18:06.271Z,9.89
2017-04-03T01:19:07.598Z,9.91
2017-04-03T01:20:08.836Z,9.85
2017-04-03T01:21:10.074Z,9.89
2017-04-03T01:22:11.333Z,9.86
2017-04-03T01:23:12.582Z,9.79
2017-04-03T01:24:13.934Z,9.83
2017-04-03T01:25:15.173Z,9.88
2017-04-03T01:26:16.407Z,9.88
2017-04-03T01:27:17.687Z,9.89
2017-04-03T01:28:19.019Z,9.82
2017-04-03T01:29:20.243Z,9.88
2017-04-03T01:30:21.494Z,9.82
2017-04-03T01:31:22.729Z,9.88
2017-04-03T01:32:24.088Z,9.89
2017-04-03T01:33:25.327Z,9.85
2017-04-03T01:34:26.564Z,9.85
2017-04-03T01:35:27.816Z,9.89
2017-04-03T01:36:29.057Z,9.86
2017-04-03T01:37:30.335Z,9.86
2017-04-03T01:38:31.744Z,9.83
2017-04-03T01:39:32.961Z,9.83
2017-04-03T01:40:34.202Z,9.89
2017-04-03T01:41:35.448Z,9.89
2017-04-03T01:42:36.698Z,9.75
2017-04-03T01:43:37.969Z,9.85
2017-04-03T01:44:39.225Z,9.73
2017-04-03T01:45:40.475Z,9.78
2017-04-03T01:46:41.739Z,9.71
2017-04-03T01:47:42.999Z,9.73
2017-04-03T01:48:44.254Z,9.79
2017-04-03T01:49:45.500Z,9.7
2017-04-03T01:50:46.744Z,9.67
2017-04-03T01:51:48.249Z,9.63
2017-04-03T01:52:49.491Z,9.57
2017-04-03T01:53:50.719Z,9.71
2017-04-03T01:54:52.193Z,9.56
2017-04-03T01:55:53.467Z,9.6
2017-04-03T01:56:54.779Z,9.6
2017-04-03T01:57:56.019Z,9.57
2017-04-03T01:58:57.270Z,9.52
2017-04-03T01:59:58.509Z,9.53
2017-04-03T02:00:59.748Z,9.58
2017-04-03T02:02:00.986Z,9.5
2017-04-03T02:03:02.276Z,9.5
2017-04-03T02:04:03.529Z,9.4
2017-04-03T02:05:04.789Z,9.4
2017-04-03T02:06:06.030Z,9.4
2017-04-03T02:07:07.271Z,9.46
2017-04-03T02:08:08.548Z,9.42
2017-04-03T02:09:09.829Z,9.39
2017-04-03T02:10:11.075Z,9.4
2017-04-03T02:11:12.376Z,9.3
2017-04-03T02:12:13.630Z,9.25
2017-04-03T02:13:14.856Z,9.27
2017-04-03T02:14:16.099Z,9.27
2017-04-03T02:15:17.343Z,9.23
2017-04-03T02:16:18.645Z,9.12
2017-04-03T02:17:19.917Z,9.09
2017-04-03T02:18:21.140Z,9.06
2017-04-03T02:19:22.387Z,9.09
2017-04-03T02:20:23.638Z,9.02
2017-04-03T02:21:24.875Z,9.04
2017-04-03T02:22:26.234Z,9.04
2017-04-03T02:23:27.459Z,9.09
2017-04-03T02:24:28.666Z,9.04
2017-04-03T02:25:29.905Z,8.96
2017-04-03T02:26:31.145Z,8.99
2017-04-03T02:27:32.428Z,9.01
2017-04-03T02:28:33.755Z,8.91
2017-04-03T02:29:34.979Z,8.94
2017-04-03T02:30:36.275Z,8.9
2017-04-03T02:31:37.517Z,8.84
2017-04-03T02:32:38.737Z,8.83
2017-04-03T02:33:40.097Z,8.87
2017-04-03T02:34:41.360Z,8.76
2017-04-03T02:35:42.597Z,8.84
2017-04-03T02:36:43.844Z,8.79
2017-04-03T02:37:45.093Z,8.79
2017-04-03T02:38:46.406Z,8.76
2017-04-03T02:39:47.703Z,8.81
2017-04-03T02:40:48.956Z,8.86
2017-04-03T02:41:50.211Z,8.87
2017-04-03T02:42:51.427Z,8.83
2017-04-03T02:43:52.669Z,8.69
2017-04-03T02:44:54.069Z,8.84
2017-04-03T02:45:55.316Z,8.79
2017-04-03T02:46:56.559Z,8.86
2017-04-03T02:47:57.806Z,8.75
2017-04-03T02:48:59.109Z,8.78
2017-04-03T02:50:00.352Z,8.83
2017-04-03T02:51:01.578Z,8.76
2017-04-03T02:52:02.810Z,8.75
2017-04-03T02:53:04.169Z,8.75
2017-04-03T02:54:05.436Z,8.76
2017-04-03T02:55:06.663Z,8.75
2017-04-03T02:56:07.908Z,8.72
2017-04-03T02:57:09.129Z,8.73
2017-04-03T02:58:10.400Z,8.78
2017-04-03T02:59:11.673Z,8.76
2017-04-03T03:00:12.930Z,8.73
2017-04-03T03:01:14.188Z,8.71
2017-04-03T03:02:15.472Z,8.68
2017-04-03T03:03:16.721Z,8.65
2017-04-03T03:04:17.967Z,8.69
2017-04-03T03:05:19.213Z,8.72
2017-04-03T03:06:20.435Z,8.71
2017-04-03T03:07:21.725Z,8.72
2017-04-03T03:08:23.013Z,8.68
2017-04-03T03:09:24.197Z,8.62
2017-04-03T03:10:25.450Z,8.55
2017-04-03T03:11:26.688Z,8.51
2017-04-03T03:12:27.918Z,8.51
2017-04-03T03:13:29.185Z,8.53
2017-04-03T03:14:30.444Z,8.5
2017-04-03T03:15:31.751Z,8.39
2017-04-03T03:16:32.955Z,8.39
2017-04-03T03:17:34.252Z,8.45
2017-04-03T03:18:35.633Z,8.4
2017-04-03T03:19:36.857Z,8.42
2017-04-03T03:20:38.187Z,8.45
2017-04-03T03:21:39.448Z,8.39
2017-04-03T03:22:40.686Z,8.33
2017-04-03T03:23:41.961Z,8.3
2017-04-03T03:24:43.199Z,8.21
2017-04-03T03:25:44.475Z,8.36
2017-04-03T03:26:45.678Z,8.26
2017-04-03T03:27:46.955Z,8.28
2017-04-03T03:28:48.194Z,8.28
2017-04-03T03:29:49.460Z,8.21
2017-04-03T03:30:50.709Z,8.26
2017-04-03T03:31:52.065Z,8.25
2017-04-03T03:32:53.283Z,8.25
2017-04-03T03:33:54.522Z,8.26
2017-04-03T03:34:55.774Z,8.26
2017-04-03T03:35:57.023Z,8.26
2017-04-03T03:36:58.243Z,8.25
2017-04-03T03:37:59.563Z,8.25
2017-04-03T03:39:00.825Z,8.26
2017-04-03T03:40:02.104Z,8.26
2017-04-03T03:41:03.347Z,8.18
2017-04-03T03:42:04.610Z,8.25
2017-04-03T03:43:05.943Z,8.21
2017-04-03T03:44:07.230Z,8.21
2017-04-03T03:45:08.507Z,8.26
2017-04-03T03:46:09.820Z,8.29
2017-04-03T03:47:11.080Z,8.28
2017-04-03T03:48:12.301Z,8.21
2017-04-03T03:49:13.518Z,8.25
2017-04-03T03:50:14.766Z,8.32
2017-04-03T03:51:16.004Z,8.25
2017-04-03T03:52:17.335Z,8.28
2017-04-03T03:53:18.462Z,8.22
2017-04-03T03:54:19.720Z,8.26
2017-04-03T03:55:20.941Z,8.32
2017-04-03T03:56:22.188Z,8.33
2017-04-03T03:57:23.481Z,8.37
2017-04-03T03:58:24.748Z,8.44
2017-04-03T03:59:25.999Z,8.39
2017-04-03T04:00:27.238Z,8.36
2017-04-03T04:01:28.474Z,8.42
2017-04-03T04:02:29.781Z,8.32
2017-04-03T04:03:31.004Z,8.33
2017-04-03T04:04:32.423Z,8.42
2017-04-03T04:05:33.693Z,8.33
2017-04-03T04:06:34.930Z,8.35
2017-04-03T04:07:36.196Z,8.39
2017-04-03T04:08:37.504Z,8.37
2017-04-03T04:09:38.756Z,8.32
2017-04-03T04:10:40.103Z,8.37
2017-04-03T04:11:41.369Z,8.35
2017-04-03T04:12:42.591Z,8.3
2017-04-03T04:13:43.855Z,8.4
2017-04-03T04:14:45.083Z,8.33
2017-04-03T04:15:46.367Z,8.42
2017-04-03T04:16:47.629Z,8.42
2017-04-03T04:17:48.850Z,8.37
2017-04-03T04:18:50.100Z,8.42
2017-04-03T04:19:51.330Z,8.37
2017-04-03T04:20:52.605Z,8.36
2017-04-03T04:21:53.866Z,8.45
2017-04-03T04:22:55.079Z,8.47
2017-04-03T04:23:56.423Z,8.39
2017-04-03T04:24:57.654Z,8.44
2017-04-03T04:25:58.886Z,8.4
2017-04-03T04:27:00.125Z,8.4
2017-04-03T04:28:01.378Z,8.4
2017-04-03T04:29:02.709Z,8.48
2017-04-03T04:30:03.994Z,8.44
2017-04-03T04:31:05.199Z,8.45
2017-04-03T04:32:06.443Z,8.47
2017-04-03T04:33:07.680Z,8.44
2017-04-03T04:34:08.921Z,8.4
2017-04-03T04:35:10.175Z,8.47
2017-04-03T04:36:11.455Z,8.36
2017-04-03T04:37:12.679Z,8.33
2017-04-03T04:38:13.916Z,8.37
2017-04-03T04:39:15.160Z,8.36
2017-04-03T04:40:16.399Z,8.42
2017-04-03T04:41:17.666Z,8.42
2017-04-03T04:42:18.905Z,8.44
2017-04-03T04:43:20.191Z,8.4
2017-04-03T04:44:21.453Z,8.32
2017-04-03T04:45:22.673Z,8.25
2017-04-03T04:46:23.978Z,8.26
2017-04-03T04:47:25.232Z,8.26
2017-04-03T04:48:26.549Z,8.11
2017-04-03T04:49:27.908Z,8.17
2017-04-03T04:50:29.150Z,8.11
2017-04-03T04:51:30.400Z,8.2
2017-04-03T04:52:31.626Z,8.1
2017-04-03T04:53:32.878Z,8.11
2017-04-03T04:54:34.121Z,8.02
2017-04-03T04:55:35.386Z,8.07
2017-04-03T04:56:36.601Z,8.12
2017-04-03T04:57:37.842Z,8.11
2017-04-03T04:58:39.121Z,8.07
2017-04-03T04:59:40.322Z,8.04
2017-04-03T05:00:41.586Z,8.07
2017-04-03T05:01:42.816Z,8.1
2017-04-03T05:02:44.058Z,8.03
2017-04-03T05:03:45.295Z,8.04
2017-04-03T05:04:46.531Z,8.07
2017-04-03T05:05:47.802Z,7.99
2017-04-03T05:06:49.047Z,7.96
2017-04-03T05:07:50.280Z,7.96
2017-04-03T05:08:51.538Z,8.04
2017-04-03T05:09:52.773Z,8.02
2017-04-03T05:10:54.006Z,7.99
2017-04-03T05:11:55.252Z,7.99
2017-04-03T05:12:56.532Z,8.02
2017-04-03T05:13:57.913Z,7.96
2017-04-03T05:14:59.041Z,7.82
2017-04-03T05:16:00.344Z,7.99
2017-04-03T05:17:01.587Z,7.89
2017-04-03T05:18:02.827Z,8.03
2017-04-03T05:19:04.126Z,7.89
2017-04-03T05:20:05.516Z,8.07
2017-04-03T05:21:06.785Z,7.87
2017-04-03T05:22:07.998Z,7.94
2017-04-03T05:23:09.244Z,7.87
2017-04-03T05:24:10.544Z,7.94
2017-04-03T05:25:11.860Z,7.92
2017-04-03T05:26:13.103Z,8.04
2017-04-03T05:27:14.342Z,8.03
2017-04-03T05:28:15.571Z,7.93
2017-04-03T05:29:16.815Z,7.92
2017-04-03T05:30:18.127Z,7.94
2017-04-03T05:31:19.342Z,8.04
2017-04-03T05:32:20.587Z,8.11
2017-04-03T05:33:21.837Z,8.08
2017-04-03T05:34:23.097Z,8.04
2017-04-03T05:35:24.316Z,8.11
2017-04-03T05:36:25.580Z,8.12
2017-04-03T05:37:26.804Z,8.1
2017-04-03T05:38:28.093Z,8.07
2017-04-03T05:39:29.308Z,8.03
2017-04-03T05:40:30.572Z,8.02
2017-04-03T05:41:31.804Z,8.02
2017-04-03T05:42:33.077Z,7.85
2017-04-03T05:43:34.336Z,7.87
2017-04-03T05:44:35.673Z,7.93
2017-04-03T05:45:36.910Z,7.89
2017-04-03T05:46:38.255Z,7.89
2017-04-03T05:47:39.506Z,7.92
2017-04-03T05:48:40.747Z,7.87
2017-04-03T05:49:42.016Z,7.89
2017-04-03T05:50:43.251Z,7.89
2017-04-03T05:51:44.636Z,7.87
2017-04-03T05:52:45.893Z,7.9
2017-04-03T05:53:47.257Z,7.89
2017-04-03T05:54:48.484Z,7.89
2017-04-03T05:55:49.709Z,7.89
2017-04-03T05:56:50.950Z,7.94
2017-04-03T05:57:52.242Z,7.97
2017-04-03T05:58:53.514Z,7.94
2017-04-03T05:59:54.750Z,7.9
2017-04-03T06:00:55.986Z,7.87
2017-04-03T06:01:57.225Z,7.89
2017-04-03T06:02:58.495Z,7.96
2017-04-03T06:03:59.734Z,7.92
2017-04-03T06:05:00.980Z,7.85
2017-04-03T06:06:02.293Z,7.97
2017-04-03T06:07:03.538Z,7.96
2017-04-03T06:08:04.777Z,7.99
2017-04-03T06:09:06.006Z,7.82
2017-04-03T06:10:07.257Z,7.85
2017-04-03T06:11:08.517Z,7.96
2017-04-03T06:12:09.760Z,7.99
2017-04-03T06:13:11.018Z,7.99
2017-04-03T06:14:12.209Z,7.97
2017-04-03T06:15:13.444Z,8.02
2017-04-03T06:16:14.690Z,8.11
2017-04-03T06:17:16.062Z,8.07
2017-04-03T06:18:17.311Z,8.02
2017-04-03T06:19:18.544Z,8.03
2017-04-03T06:20:19.777Z,8.1
2017-04-03T06:21:21.002Z,8.02
2017-04-03T06:22:22.357Z,8.12
2017-04-03T06:23:23.583Z,8.1
2017-04-03T06:24:24.920Z,8.11
2017-04-03T06:25:26.243Z,8.18
2017-04-03T06:26:27.423Z,8.2
2017-04-03T06:27:28.688Z,8.2
2017-04-03T06:28:29.927Z,8.17
2017-04-03T06:29:31.164Z,8.18
2017-04-03T06:30:32.461Z,8.21
2017-04-03T06:31:33.713Z,8.25
2017-04-03T06:32:34.952Z,8.18
2017-04-03T06:33:36.313Z,8.32
2017-04-03T06:34:37.594Z,8.28
2017-04-03T06:35:38.809Z,8.32
2017-04-03T06:36:40.138Z,8.2
2017-04-03T06:37:41.457Z,8.32
2017-04-03T06:38:42.698Z,8.35
2017-04-03T06:39:43.943Z,8.36
2017-04-03T06:40:45.185Z,8.39
2017-04-03T06:41:46.552Z,8.33
2017-04-03T06:42:47.816Z,8.32
2017-04-03T06:43:49.035Z,8.28
2017-04-03T06:44:50.294Z,8.21
2017-04-03T06:45:51.535Z,8.25
2017-04-03T06:46:52.784Z,8.29
2017-04-03T06:47:54.136Z,8.39
2017-04-03T06:48:55.396Z,8.37
2017-04-03T06:49:56.683Z,8.45
2017-04-03T06:50:57.925Z,8.4
2017-04-03T06:51:59.169Z,8.48
2017-04-03T06:53:00.512Z,8.4
2017-04-03T06:54:01.769Z,8.42
2017-04-03T06:55:03.004Z,8.4
2017-04-03T06:56:04.339Z,8.39
2017-04-03T06:57:05.550Z,8.42
2017-04-03T06:58:06.788Z,8.36
2017-04-03T06:59:08.101Z,8.44
2017-04-03T07:00:09.342Z,8.42
2017-04-03T07:01:10.592Z,8.37
2017-04-03T07:02:11.820Z,8.28
2017-04-03T07:03:13.057Z,8.28
2017-04-03T07:04:14.309Z,8.28
2017-04-03T07:05:15.563Z,8.28
2017-04-03T07:06:16.870Z,8.3
2017-04-03T07:07:18.296Z,8.25
2017-04-03T07:08:19.528Z,8.28
2017-04-03T07:09:20.761Z,8.3
2017-04-03T07:10:22.003Z,8.25
2017-04-03T07:11:23.239Z,8.29
2017-04-03T07:12:24.509Z,8.36
2017-04-03T07:13:25.872Z,8.37
2017-04-03T07:14:27.113Z,8.37
2017-04-03T07:15:28.354Z,8.32
2017-04-03T07:16:29.604Z,8.25
2017-04-03T07:17:30.857Z,8.33
2017-04-03T07:18:32.220Z,8.33
2017-04-03T07:19:33.415Z,8.28
2017-04-03T07:20:34.696Z,8.33
2017-04-03T07:21:35.945Z,8.28
2017-04-03T07:22:37.187Z,8.26
2017-04-03T07:23:38.496Z,8.39
2017-04-03T07:24:39.746Z,8.37
2017-04-03T07:25:41.000Z,8.39
2017-04-03T07:26:42.221Z,8.48
2017-04-03T07:27:43.475Z,8.44
2017-04-03T07:28:44.926Z,8.5
2017-04-03T07:29:46.216Z,8.44
2017-04-03T07:30:47.482Z,8.44
2017-04-03T07:31:48.734Z,8.4
2017-04-03T07:32:49.985Z,8.44
2017-04-03T07:33:51.226Z,8.39
2017-04-03T07:34:52.465Z,8.37
2017-04-03T07:35:53.771Z,8.39
2017-04-03T07:36:55.024Z,8.39
2017-04-03T07:37:56.276Z,8.42
2017-04-03T07:38:57.567Z,8.35
2017-04-03T07:39:58.809Z,8.44
2017-04-03T07:41:00.044Z,8.42
2017-04-03T07:42:01.308Z,8.48
2017-04-03T07:43:02.563Z,8.53
2017-04-03T07:44:04.043Z,8.53
2017-04-03T07:45:05.305Z,8.5
2017-04-03T07:46:06.542Z,8.54
2017-04-03T07:47:07.785Z,8.72
2017-04-03T07:48:09.030Z,8.76
2017-04-03T07:49:10.277Z,8.76
2017-04-03T07:50:11.490Z,8.78
2017-04-03T07:51:12.752Z,8.73
2017-04-03T07:52:13.970Z,8.81
2017-04-03T07:53:15.231Z,8.88
2017-04-03T07:54:16.652Z,8.83
2017-04-03T07:55:17.927Z,8.9
2017-04-03T07:56:19.158Z,8.93
2017-04-03T07:57:20.409Z,9.12
2017-04-03T07:58:21.668Z,9.2
2017-04-03T07:59:22.911Z,9.15
2017-04-03T08:00:24.155Z,9.18
2017-04-03T08:01:25.403Z,9.13
2017-04-03T08:02:26.887Z,9.12
2017-04-03T08:03:28.107Z,9.15
2017-04-03T08:04:29.340Z,9.12
2017-04-03T08:05:30.579Z,9.13
2017-04-03T08:06:31.816Z,9.13
2017-04-03T08:07:33.115Z,9.2
2017-04-03T08:08:34.364Z,9.18
2017-04-03T08:09:35.657Z,9.15
2017-04-03T08:10:36.893Z,9.25
2017-04-03T08:11:38.406Z,9.3
2017-04-03T08:12:39.667Z,9.23
2017-04-03T08:13:40.921Z,9.3
2017-04-03T08:14:42.210Z,9.31
2017-04-03T08:15:43.459Z,9.24
2017-04-03T08:16:44.687Z,9.25
2017-04-03T08:17:45.975Z,9.28
2017-04-03T08:18:47.239Z,9.28
2017-04-03T08:19:48.499Z,9.3
2017-04-03T08:20:49.783Z,9.39
2017-04-03T08:21:51.001Z,9.42
2017-04-03T08:22:52.241Z,9.48
2017-04-03T08:23:53.481Z,9.39
2017-04-03T08:24:54.713Z,9.45
2017-04-03T08:25:55.956Z,9.48
2017-04-03T08:26:57.201Z,9.64
2017-04-03T08:27:58.454Z,9.63
2017-04-03T08:28:59.687Z,9.75
2017-04-03T08:30:00.966Z,9.81
2017-04-03T08:31:02.178Z,9.7
2017-04-03T08:32:03.412Z,9.71
2017-04-03T08:33:04.667Z,9.71
2017-04-03T08:34:05.913Z,9.86
2017-04-03T08:35:07.232Z,9.83
2017-04-03T08:36:08.452Z,9.85
2017-04-03T08:37:09.693Z,9.88
2017-04-03T08:38:10.940Z,9.88
2017-04-03T08:39:12.191Z,9.89
2017-04-03T08:40:13.438Z,9.81
2017-04-03T08:41:14.772Z,9.71
2017-04-03T08:42:15.981Z,9.85
2017-04-03T08:43:17.235Z,10.01
2017-04-03T08:44:18.652Z,9.99
2017-04-03T08:45:20.049Z,10.07
2017-04-03T08:46:21.172Z,10.12
2017-04-03T08:47:22.444Z,9.97
2017-04-03T08:48:23.682Z,10.12
2017-04-03T08:49:24.938Z,10.17
2017-04-03T08:50:26.170Z,10.17
2017-04-03T08:51:27.453Z,10.19
2017-04-03T08:52:28.720Z,10.15
2017-04-03T08:53:29.935Z,10.26
2017-04-03T08:54:31.174Z,10.24
2017-04-03T08:55:32.489Z,10.34
2017-04-03T08:56:33.733Z,10.15
2017-04-03T08:57:34.978Z,10.25
2017-04-03T08:58:36.251Z,10.42
2017-04-03T08:59:37.495Z,10.52
2017-04-03T09:00:38.752Z,10.63
2017-04-03T09:01:40.010Z,10.78
2017-04-03T09:02:41.244Z,10.91
2017-04-03T09:03:42.586Z,11.01
2017-04-03T09:04:43.864Z,11.14
2017-04-03T09:05:45.102Z,11.27
2017-04-03T09:06:46.342Z,11.19
2017-04-03T09:07:47.610Z,11.35
2017-04-03T09:08:48.853Z,11.46
2017-04-03T09:09:50.096Z,11.54
2017-04-03T09:10:51.355Z,11.54
2017-04-03T09:11:52.582Z,11.56
2017-04-03T09:12:53.851Z,11.53
2017-04-03T09:13:55.125Z,11.61
2017-04-03T09:14:56.382Z,11.68
2017-04-03T09:15:57.620Z,11.96
2017-04-03T09:16:58.870Z,11.94
2017-04-03T09:18:00.100Z,12.05
2017-04-03T09:19:01.499Z,12.12
2017-04-03T09:20:02.637Z,12.37
2017-04-03T09:21:03.893Z,12.45
2017-04-03T09:22:05.124Z,12.48
2017-04-03T09:23:06.402Z,12.44
2017-04-03T09:24:07.640Z,12.39
2017-04-03T09:25:08.887Z,12.49
2017-04-03T09:26:10.169Z,12.54
2017-04-03T09:27:11.419Z,12.67
2017-04-03T09:28:12.668Z,12.75
2017-04-03T09:29:13.938Z,12.74
2017-04-03T09:30:15.190Z,12.95
2017-04-03T09:31:16.478Z,13.04
2017-04-03T09:32:17.696Z,13.15
2017-04-03T09:33:18.935Z,13.43
2017-04-03T09:34:20.191Z,13.65
2017-04-03T09:35:21.450Z,13.59
2017-04-03T09:36:22.717Z,13.52
2017-04-03T09:37:24.018Z,13.54
2017-04-03T09:38:25.263Z,13.63
2017-04-03T09:39:26.532Z,13.88
2017-04-03T09:40:27.749Z,14.13
2017-04-03T09:41:28.998Z,14.16
2017-04-03T09:42:30.257Z,14.24
2017-04-03T09:43:31.504Z,14.56
2017-04-03T09:44:32.799Z,14.71
2017-04-03T09:45:34.050Z,14.83
2017-04-03T09:46:35.277Z,14.87
2017-04-03T09:47:36.548Z,14.84
2017-04-03T09:48:37.821Z,14.87
2017-04-03T09:49:39.069Z,14.81
2017-04-03T09:50:40.350Z,14.64
2017-04-03T09:51:41.608Z,14.56
2017-04-03T09:52:42.855Z,14.61
2017-04-03T09:53:44.129Z,14.62
2017-04-03T09:54:45.367Z,14.74
2017-04-03T09:55:46.696Z,15.02
2017-04-03T09:56:47.957Z,15.84
2017-04-03T09:57:49.371Z,16.74
2017-04-03T09:58:50.513Z,17.94
2017-04-03T09:59:51.753Z,19.02
2017-04-03T10:00:53.017Z,19.86
2017-04-03T10:01:54.274Z,20.72
2017-04-03T10:02:55.582Z,21.24
2017-04-03T10:03:56.801Z,21.72
2017-04-03T10:04:58.034Z,21.82
2017-04-03T10:05:59.271Z,20.72
2017-04-03T10:07:00.648Z,20
2017-04-03T10:08:01.880Z,19.75
2017-04-03T10:09:03.128Z,19.76
2017-04-03T10:10:04.383Z,19.9
2017-04-03T10:11:05.653Z,19.87
2017-04-03T10:12:06.895Z,19.23
2017-04-03T10:13:08.142Z,18.76
2017-04-03T10:14:09.399Z,18.15
2017-04-03T10:15:10.650Z,17.82
2017-04-03T10:16:11.897Z,17.63
2017-04-03T10:17:13.168Z,17.33
2017-04-03T10:18:14.421Z,17.3
2017-04-03T10:19:15.676Z,17.13
2017-04-03T10:20:17.043Z,17.23
2017-04-03T10:21:18.370Z,17.23
2017-04-03T10:22:19.620Z,17.22
2017-04-03T10:23:20.871Z,17.1
2017-04-03T10:24:22.166Z,16.9
2017-04-03T10:25:23.394Z,17.14
2017-04-03T10:26:24.653Z,17.25
2017-04-03T10:27:25.967Z,17.04
2017-04-03T10:28:27.211Z,16.9
2017-04-03T10:29:28.496Z,16.62
2017-04-03T10:30:29.689Z,16.53
2017-04-03T10:31:30.938Z,16.3
2017-04-03T10:32:32.445Z,15.96
2017-04-03T10:33:33.799Z,15.63
2017-04-03T10:34:35.043Z,15.41
2017-04-03T10:35:36.278Z,15.26
2017-04-03T10:36:37.535Z,15.31
2017-04-03T10:37:38.781Z,15.35
2017-04-03T10:38:40.159Z,15.43
2017-04-03T10:39:41.402Z,15.3
2017-04-03T10:40:42.661Z,15.36
2017-04-03T10:41:43.907Z,15.3
2017-04-03T10:42:45.137Z,15.21
2017-04-03T10:43:46.473Z,15.12
2017-04-03T10:44:47.748Z,15.02
2017-04-03T10:45:49.034Z,15.05
2017-04-03T10:46:50.388Z,15.28
2017-04-03T10:47:51.666Z,15.41
2017-04-03T10:48:53.017Z,15.67
2017-04-03T10:49:54.335Z,15.81
2017-04-03T10:50:55.590Z,16.25
2017-04-03T10:51:56.816Z,16.5
2017-04-03T10:52:58.068Z,16.93
2017-04-03T10:53:59.329Z,17.1
2017-04-03T10:55:00.676Z,17.04
2017-04-03T10:56:01.987Z,17.1
2017-04-03T10:57:03.219Z,16.95
2017-04-03T10:58:04.464Z,16.92
2017-04-03T10:59:05.706Z,16.88
2017-04-03T11:00:06.950Z,16.85
2017-04-03T11:01:08.213Z,16.62
2017-04-03T11:02:09.471Z,16.49
2017-04-03T11:03:10.710Z,16.48
2017-04-03T11:04:11.952Z,16.38
2017-04-03T11:05:13.192Z,16.48
2017-04-03T11:06:14.441Z,16.4
2017-04-03T11:07:15.684Z,16.18
2017-04-03T11:08:17.009Z,16.22
2017-04-03T11:09:18.256Z,16.23
2017-04-03T11:10:19.520Z,16.25
2017-04-03T11:11:20.762Z,16.15
2017-04-03T11:12:22.013Z,16.14
2017-04-03T11:13:23.242Z,16.04
2017-04-03T11:14:24.555Z,16
2017-04-03T11:15:25.826Z,15.84
2017-04-03T11:16:27.060Z,15.63
2017-04-03T11:17:28.417Z,15.63
2017-04-03T11:18:29.667Z,15.41
2017-04-03T11:19:30.904Z,15.41
2017-04-03T11:20:32.250Z,15.28
2017-04-03T11:21:33.490Z,15.23
2017-04-03T11:22:34.735Z,15.21
2017-04-03T11:23:35.976Z,15.31
2017-04-03T11:24:37.226Z,15.35
2017-04-03T11:25:38.491Z,15.2
2017-04-03T11:26:39.739Z,14.95
2017-04-03T11:27:40.970Z,14.69
2017-04-03T11:28:42.218Z,14.31
2017-04-03T11:29:43.571Z,14.2
2017-04-03T11:30:44.804Z,14.12
2017-04-03T11:31:46.060Z,14.13
2017-04-03T11:32:47.303Z,14.12
2017-04-03T11:33:48.565Z,13.95
2017-04-03T11:34:49.925Z,13.77
2017-04-03T11:35:51.101Z,13.63
2017-04-03T11:36:52.393Z,13.51
2017-04-03T11:37:53.609Z,13.52
2017-04-03T11:38:54.850Z,13.58
2017-04-03T11:39:56.109Z,13.59
2017-04-03T11:40:57.387Z,13.74
2017-04-03T11:41:58.627Z,13.63
2017-04-03T11:42:59.870Z,13.73
2017-04-03T11:44:01.107Z,13.8
2017-04-03T11:45:02.416Z,13.76
2017-04-03T11:46:03.658Z,13.62
2017-04-03T11:47:04.902Z,13.61
2017-04-03T11:48:06.161Z,13.7
2017-04-03T11:49:07.441Z,13.71
2017-04-03T11:50:08.668Z,13.71
2017-04-03T11:51:09.908Z,13.63
2017-04-03T11:52:11.150Z,13.63
2017-04-03T11:53:12.413Z,13.73
2017-04-03T11:54:13.648Z,13.83
2017-04-03T11:55:14.900Z,13.8
2017-04-03T11:56:16.164Z,13.81
2017-04-03T11:57:17.414Z,13.96
2017-04-03T11:58:18.720Z,14.04
2017-04-03T11:59:19.943Z,13.95
2017-04-03T12:00:21.200Z,13.92
2017-04-03T12:01:22.443Z,13.94
2017-04-03T12:02:23.696Z,13.74
2017-04-03T12:03:24.931Z,13.76
2017-04-03T12:04:26.197Z,13.76
2017-04-03T12:05:27.461Z,13.88
2017-04-03T12:06:28.690Z,13.89
2017-04-03T12:07:29.951Z,13.91
2017-04-03T12:08:31.435Z,13.88
2017-04-03T12:09:32.689Z,13.88
2017-04-03T12:10:33.977Z,13.73
2017-04-03T12:11:35.303Z,13.69
2017-04-03T12:12:36.562Z,13.79
2017-04-03T12:13:37.857Z,13.87
2017-04-03T12:14:39.092Z,13.89
2017-04-03T12:15:40.344Z,13.91
2017-04-03T12:16:41.586Z,14.02
2017-04-03T12:17:42.837Z,14.01
2017-04-03T12:18:44.102Z,14.02
2017-04-03T12:19:45.355Z,14.13
2017-04-03T12:20:46.597Z,14.12
2017-04-03T12:21:47.833Z,14.13
2017-04-03T12:22:49.294Z,14.32
2017-04-03T12:23:50.531Z,14.27
2017-04-03T12:24:51.776Z,14.17
2017-04-03T12:25:53.010Z,14.25
2017-04-03T12:26:54.252Z,14.19
2017-04-03T12:27:55.554Z,14.12
2017-04-03T12:28:56.867Z,14.13
2017-04-03T12:29:58.200Z,14.12
2017-04-03T12:30:59.448Z,14.06
2017-04-03T12:32:00.685Z,14.16
2017-04-03T12:33:01.934Z,14.06
2017-04-03T12:34:03.172Z,14.04
2017-04-03T12:35:04.400Z,14.06
2017-04-03T12:36:05.931Z,14.13
2017-04-03T12:37:07.159Z,14.17
2017-04-03T12:38:08.469Z,14.14
2017-04-03T12:39:09.709Z,14.2
2017-04-03T12:40:10.944Z,14.32
2017-04-03T12:41:12.197Z,14.31
2017-04-03T12:42:13.456Z,14.53
2017-04-03T12:43:14.702Z,14.6
2017-04-03T12:44:15.938Z,14.57
2017-04-03T12:45:17.185Z,14.62
2017-04-03T12:46:18.454Z,14.65
2017-04-03T12:47:19.673Z,14.69
2017-04-03T12:48:20.920Z,14.68
2017-04-03T12:49:22.173Z,14.65
2017-04-03T12:50:23.424Z,14.67
2017-04-03T12:51:24.665Z,14.61
2017-04-03T12:52:25.900Z,14.75
2017-04-03T12:53:27.146Z,14.81
2017-04-03T12:54:28.395Z,14.78
2017-04-03T12:55:29.655Z,14.9
2017-04-03T12:56:30.942Z,14.87
2017-04-03T12:57:32.194Z,14.94
2017-04-03T12:58:33.448Z,15.01
2017-04-03T12:59:34.684Z,14.99
2017-04-03T13:00:35.927Z,15.05
2017-04-03T13:01:37.242Z,14.98
2017-04-03T13:02:38.470Z,15.11
2017-04-03T13:03:39.773Z,15.05
2017-04-03T13:04:41.020Z,15.19
2017-04-03T13:05:42.269Z,15.11
2017-04-03T13:06:43.515Z,15.23
2017-04-03T13:07:44.776Z,15.33
2017-04-03T13:08:46.099Z,15.38
2017-04-03T13:09:47.346Z,15.39
2017-04-03T13:10:48.594Z,15.46
2017-04-03T13:11:49.832Z,15.49
2017-04-03T13:12:51.071Z,15.57
2017-04-03T13:13:52.374Z,15.63
2017-04-03T13:14:53.640Z,15.76
2017-04-03T13:15:54.854Z,15.82
2017-04-03T13:16:56.103Z,15.84
2017-04-03T13:17:57.347Z,15.85
2017-04-03T13:18:58.615Z,15.96
2017-04-03T13:19:59.874Z,15.96
2017-04-03T13:21:01.117Z,15.94
2017-04-03T13:22:02.404Z,16.07
2017-04-03T13:23:03.617Z,16.06
2017-04-03T13:24:04.853Z,15.96
2017-04-03T13:25:06.101Z,16.06
2017-04-03T13:26:07.380Z,16.03
2017-04-03T13:27:08.609Z,16.11